10:26
Airports
History
Links
Donate
Help keep this website running!
PayPal
Bitcoin
This page is community maintained. The information is intended for PC simulator navigation or reference.
Always use approved charts for navigation.
ETOU
Wiesbaden AAF
Wiesbaden AAF (ETOU)
Wiesbaden, Hessen, Germany (65205)
(C)
Lat/Lng:50° 2' 59.38" N / 8° 19' 31.56" E
50.049828 / 8.325434
Elevation:461'ft / 141mMSL
ID / ICAO:ETOU
Runways:1
Longest:(07-25) 2,140.4m / 7,022ft Asphalt
Controlled:Yes
Distance To
Airport ID:
Airport Radio Frequencies
ATIS: 139.52
Ground: 138.55
Tower: 122.1
Approach: 120.8
Departure: 120.15
Nearby VORs <50NM
Nearby NDBs
METARUpdated 08-24-17 09:56 GMT
Altimeter: 30.04
Visibility: 6.2 statute miles
Wind: 9 knots (270°)
Temp: 22°c 72°f
Humidity: 64.5%

METAR: ETOU 240956Z AUTO 27009KT 9999 SCT032 SCT210 22/15 A3004 RMK AO2 SLP170 T02150149

(Powered by phpweather)
Runway 07 / 25
Dimensions:2140.4 x 36.6m 7022' x 120'ft
Surface:Asphalt
Edge Lights:Medium intensity
Runway 07 [A]Runway 25 [B]
Heading:073°TH 253°TH
Lat:
Lng:
50° 2' 49.39"N
8° 18' 39.71"E
50° 3' 9.37"N
8° 20' 23.41"E
User Notes and Comments
Google Map
Nearby Airports
(U) MAINZ FINTHEN 9.7 NM
EDFZ SW 234°
(C) Frankfurt am Main 10.4 NM
EDDF (WX) E 100°
(C) Glashuetten - Oberems 13.6 NM
ED07 NNE 13°
(C) Oppenheim 14.5 NM
EDGP S 171°
(C) Frankfurt-Egelsbach 15.3 NM
EDFE ESE 113°
(C) Riedelbach 17.6 NM
ED09 N
(C) Anspach - Taunus 19.2 NM
EDFA NNE 29°
VFR Chart
Flight Planning at SkyVector.com